Time;durP1;ratioP1;P1;durP2;ratioP2;P2;SDS_P1;SDS_P2;PMS_P1;PMS_P2;Temp;Humidity;BMP_temperature;BMP_pressure;BME280_temperature;BME280_humidity;BME280_pressure;Samples;Min_cycle;Max_cycle;Signal;HPM_P1;HPM_P2
2022/10/20 00:01:11;;;;;;;6.65;2.60;;;9.00;77.30;;;;;;4987174;28;20078;-79
2022/10/20 00:03:39;;;;;;;5.50;2.38;;;9.00;77.30;;;;;;4971804;28;20061;-79
2022/10/20 00:06:08;;;;;;;6.33;2.23;;;9.00;77.30;;;;;;4971066;28;20055;-80
2022/10/20 00:08:35;;;;;;;7.30;2.50;;;9.00;77.30;;;;;;4970950;28;20678;-79
2022/10/20 00:11:02;;;;;;;7.55;2.45;;;9.00;77.50;;;;;;4970858;28;20055;-79
2022/10/20 00:13:29;;;;;;;7.38;2.45;;;9.00;77.70;;;;;;4962125;28;20063;-79
2022/10/20 00:15:58;;;;;;;7.30;2.45;;;9.00;77.50;;;;;;4987043;28;20062;-79
2022/10/20 00:18:25;;;;;;;8.97;2.60;;;9.00;77.30;;;;;;4968558;28;20058;-79
2022/10/20 00:20:54;;;;;;;6.00;2.55;;;9.00;77.20;;;;;;4966426;28;20290;-79
2022/10/20 00:23:22;;;;;;;5.70;2.22;;;9.00;77.20;;;;;;4963566;28;20055;-79
2022/10/20 00:25:49;;;;;;;5.53;2.50;;;9.00;77.10;;;;;;4970588;28;20063;-79
2022/10/20 00:28:16;;;;;;;6.85;2.30;;;9.00;77.20;;;;;;4969081;28;20057;-79
2022/10/20 00:34:11;;;;;;;5.38;2.30;;;9.00;77.30;;;;;;4966892;28;20335;-79
2022/10/20 00:36:40;;;;;;;6.15;2.40;;;8.90;77.30;;;;;;4950614;28;20052;-79
2022/10/20 00:39:07;;;;;;;5.43;2.10;;;8.90;77.50;;;;;;4971286;28;20047;-79
2022/10/20 00:41:34;;;;;;;5.07;2.47;;;8.90;77.50;;;;;;4986031;28;20114;-79
2022/10/20 00:44:03;;;;;;;6.47;2.43;;;8.90;77.40;;;;;;4971199;28;20085;-79
2022/10/20 00:46:36;;;;;;;6.20;2.50;;;8.90;77.30;;;;;;4959396;28;20272;-79
2022/10/20 00:49:08;;;;;;;6.70;2.40;;;8.90;77.20;;;;;;4949910;28;20064;-79
2022/10/20 00:51:35;;;;;;;4.75;1.90;;;8.80;77.30;;;;;;4950347;28;20048;-79
2022/10/20 00:54:08;;;;;;;5.82;2.35;;;8.80;77.40;;;;;;4966385;28;20054;-79
2022/10/20 00:56:37;;;;;;;6.10;2.43;;;8.80;77.50;;;;;;4965188;28;20051;-79
2022/10/20 00:59:05;;;;;;;5.72;2.40;;;8.70;77.60;;;;;;4969241;28;20248;-79
2022/10/20 01:01:32;;;;;;;6.30;2.55;;;8.60;77.70;;;;;;4970810;28;20114;-79
2022/10/20 01:04:00;;;;;;;5.82;2.40;;;8.60;77.80;;;;;;4975086;28;20048;-79
2022/10/20 01:06:31;;;;;;;5.57;2.60;;;8.60;78.00;;;;;;4969982;28;20043;-79
2022/10/20 01:09:00;;;;;;;6.17;2.20;;;8.60;77.80;;;;;;4968610;28;20119;-79
2022/10/20 01:11:36;;;;;;;6.65;2.35;;;8.60;77.90;;;;;;4969379;28;20283;-79
2022/10/20 01:14:15;;;;;;;5.88;2.20;;;8.60;77.90;;;;;;4968909;28;20097;-79
2022/10/20 01:16:50;;;;;;;5.82;2.22;;;8.60;77.90;;;;;;4971062;28;20060;-78
2022/10/20 01:19:48;;;;;;;6.07;2.53;;;8.50;77.90;;;;;;4985428;28;20075;-79
2022/10/20 01:22:31;;;;;;;5.57;2.13;;;8.50;78.10;;;;;;4983788;28;20421;-79
2022/10/20 01:25:10;;;;;;;5.88;2.20;;;8.50;78.10;;;;;;4969753;28;20256;-79
2022/10/20 01:27:42;;;;;;;5.88;2.30;;;8.50;78.10;;;;;;4968779;28;20087;-79
2022/10/20 01:30:12;;;;;;;4.95;2.08;;;8.50;78.10;;;;;;4968748;28;20493;-79
2022/10/20 01:32:53;;;;;;;6.95;2.50;;;8.50;78.10;;;;;;4965425;28;20062;-79
2022/10/20 01:35:27;;;;;;;5.70;2.60;;;8.40;78.10;;;;;;4955073;28;20536;-79
2022/10/20 01:38:05;;;;;;;5.57;2.58;;;8.40;78.10;;;;;;4953535;28;20320;-79
2022/10/20 01:40:37;;;;;;;5.70;2.40;;;8.40;78.20;;;;;;4936989;28;20051;-79
2022/10/20 01:43:10;;;;;;;10.07;2.20;;;8.40;78.30;;;;;;4963435;28;20051;-79
2022/10/20 01:45:41;;;;;;;5.63;2.30;;;8.40;78.30;;;;;;4971261;28;20051;-79
2022/10/20 01:48:11;;;;;;;6.83;2.10;;;8.40;78.30;;;;;;4973920;28;20516;-79
2022/10/20 01:50:40;;;;;;;6.35;2.50;;;8.40;78.30;;;;;;4955473;28;20359;-79
2022/10/20 01:53:09;;;;;;;7.43;2.38;;;8.40;78.30;;;;;;4953062;28;20062;-79
2022/10/20 01:55:38;;;;;;;6.55;2.42;;;8.40;78.30;;;;;;4972633;28;20433;-79
2022/10/20 01:58:19;;;;;;;7.18;2.55;;;8.40;78.30;;;;;;4972259;28;20098;-79
2022/10/20 02:00:48;;;;;;;7.10;2.10;;;8.40;78.20;;;;;;4971301;28;20051;-79
2022/10/20 02:03:28;;;;;;;5.88;2.22;;;8.40;78.20;;;;;;4957648;28;20286;-79
2022/10/20 02:06:05;;;;;;;9.15;2.28;;;8.40;78.10;;;;;;4970728;28;20056;-79
2022/10/20 02:08:39;;;;;;;5.97;2.42;;;8.40;78.10;;;;;;4936909;28;20052;-79
2022/10/20 02:11:09;;;;;;;6.25;2.63;;;8.30;78.20;;;;;;4954136;28;20195;-78
2022/10/20 02:13:39;;;;;;;6.97;2.70;;;8.30;78.10;;;;;;4987872;28;20066;-78
2022/10/20 02:16:12;;;;;;;7.25;2.70;;;8.30;78.30;;;;;;4988217;28;20273;-78
2022/10/20 02:18:42;;;;;;;9.05;2.75;;;8.30;78.20;;;;;;4973571;28;20057;-78
2022/10/20 02:21:11;;;;;;;6.38;2.40;;;8.40;78.20;;;;;;4970879;28;20134;-79
2022/10/20 02:23:39;;;;;;;6.05;2.42;;;8.40;78.10;;;;;;4972156;28;20327;-79
2022/10/20 02:26:08;;;;;;;6.90;2.67;;;8.40;78.10;;;;;;4971768;28;20051;-78
2022/10/20 02:28:39;;;;;;;8.10;2.55;;;8.40;78.10;;;;;;4971816;28;20634;-79
2022/10/20 02:31:06;;;;;;;5.95;2.42;;;8.40;78.10;;;;;;4978522;28;20062;-78
2022/10/20 02:33:34;;;;;;;9.05;3.17;;;8.30;78.00;;;;;;4968638;28;20055;-79
2022/10/20 02:36:05;;;;;;;6.22;2.70;;;8.30;78.10;;;;;;4984640;28;20055;-79
2022/10/20 02:38:32;;;;;;;5.83;2.30;;;8.30;78.10;;;;;;4983334;28;20410;-78
2022/10/20 02:40:59;;;;;;;7.03;2.50;;;8.30;78.20;;;;;;4978042;28;20713;-78
2022/10/20 02:43:26;;;;;;;6.97;2.70;;;8.30;78.20;;;;;;4971314;28;20044;-79
2022/10/20 02:45:54;;;;;;;6.22;2.92;;;8.20;78.20;;;;;;4978936;28;20052;-79
2022/10/20 02:48:21;;;;;;;7.72;2.60;;;8.20;78.20;;;;;;4967691;28;20127;-79
2022/10/20 02:50:48;;;;;;;6.17;2.57;;;8.20;78.30;;;;;;4961071;28;20055;-79
2022/10/20 02:53:15;;;;;;;7.72;2.88;;;8.20;78.50;;;;;;4971140;28;20323;-79
2022/10/20 02:55:42;;;;;;;8.15;2.85;;;8.10;78.40;;;;;;4969318;28;20691;-79
2022/10/20 02:58:09;;;;;;;9.13;2.97;;;8.10;78.40;;;;;;4971525;28;20055;-79
2022/10/20 03:00:36;;;;;;;7.78;2.92;;;8.10;78.40;;;;;;4984248;28;20052;-78
2022/10/20 03:03:04;;;;;;;9.37;3.17;;;8.10;78.50;;;;;;4968103;28;20056;-79
2022/10/20 03:05:31;;;;;;;6.13;2.80;;;8.10;78.60;;;;;;4958433;28;20262;-79
2022/10/20 03:07:58;;;;;;;6.28;2.90;;;8.10;78.60;;;;;;4952017;28;20126;-78
2022/10/20 03:10:25;;;;;;;5.40;2.90;;;8.10;78.60;;;;;;4962089;28;20050;-79
2022/10/20 03:12:52;;;;;;;6.45;2.88;;;8.10;78.50;;;;;;4968238;28;20063;-79
2022/10/20 03:15:19;;;;;;;6.83;2.80;;;8.10;78.60;;;;;;4964766;28;20048;-78
2022/10/20 03:17:46;;;;;;;6.25;3.10;;;8.10;78.60;;;;;;4971641;28;20272;-78
2022/10/20 03:20:14;;;;;;;6.88;3.30;;;8.00;78.70;;;;;;4970271;28;20044;-78
2022/10/20 03:22:41;;;;;;;6.55;2.97;;;8.10;78.60;;;;;;4972814;28;20104;-78
2022/10/20 03:25:08;;;;;;;6.68;3.50;;;8.10;78.70;;;;;;4970936;28;20062;-79
2022/10/20 03:27:35;;;;;;;7.10;3.03;;;8.00;78.60;;;;;;4970641;28;20059;-78
2022/10/20 03:30:02;;;;;;;8.75;3.13;;;8.00;78.70;;;;;;4973509;28;20253;-79
2022/10/20 03:32:28;;;;;;;6.80;3.42;;;8.00;78.90;;;;;;4984097;28;20043;-78
2022/10/20 03:34:55;;;;;;;7.38;3.10;;;8.00;78.90;;;;;;4959842;28;20057;-79
2022/10/20 03:37:24;;;;;;;7.75;3.17;;;8.00;78.90;;;;;;4970640;28;20146;-78
2022/10/20 03:39:50;;;;;;;8.33;3.53;;;8.00;78.90;;;;;;4970437;28;20058;-79
2022/10/20 03:42:17;;;;;;;7.05;3.50;;;8.00;79.00;;;;;;4971036;28;20291;-79
2022/10/20 03:44:44;;;;;;;9.15;3.55;;;7.90;78.90;;;;;;4985992;28;20055;-79
2022/10/20 03:47:12;;;;;;;7.60;3.55;;;7.90;79.00;;;;;;4970858;28;20066;-79
2022/10/20 03:49:40;;;;;;;7.95;3.58;;;7.90;79.00;;;;;;4970163;28;20055;-78
2022/10/20 03:52:07;;;;;;;8.37;3.20;;;7.90;79.20;;;;;;4970769;28;20054;-78
2022/10/20 03:54:36;;;;;;;6.85;3.63;;;7.90;79.10;;;;;;4970581;28;20734;-78
2022/10/20 03:57:03;;;;;;;9.93;3.85;;;7.80;79.30;;;;;;4986726;28;20062;-79
2022/10/20 03:59:30;;;;;;;8.95;3.97;;;7.80;79.30;;;;;;4969944;28;20051;-79
2022/10/20 04:01:58;;;;;;;8.07;3.80;;;7.80;79.40;;;;;;4968632;28;20118;-79
2022/10/20 04:04:25;;;;;;;9.07;3.93;;;7.80;79.60;;;;;;4972189;28;20410;-79
2022/10/20 04:06:52;;;;;;;10.18;4.18;;;7.80;79.60;;;;;;4970629;28;20339;-79
2022/10/20 04:09:19;;;;;;;7.25;3.65;;;7.80;79.70;;;;;;4986133;28;20601;-79
2022/10/20 04:11:47;;;;;;;7.97;4.35;;;7.80;79.60;;;;;;4970569;28;20055;-79
2022/10/20 04:14:14;;;;;;;9.50;4.15;;;7.80;79.70;;;;;;4970583;28;20051;-79
2022/10/20 04:16:41;;;;;;;9.03;4.17;;;7.80;79.70;;;;;;4969999;28;20503;-79
2022/10/20 04:19:08;;;;;;;9.07;4.40;;;7.70;79.80;;;;;;4967751;28;20657;-79
2022/10/20 04:21:34;;;;;;;8.98;3.95;;;7.70;79.80;;;;;;4970489;28;20509;-79
2022/10/20 04:24:01;;;;;;;8.35;4.45;;;7.80;80.00;;;;;;4970313;28;20051;-78
2022/10/20 04:26:28;;;;;;;8.88;4.25;;;7.70;79.90;;;;;;4971705;28;20059;-79
2022/10/20 04:28:57;;;;;;;8.67;4.83;;;7.70;80.00;;;;;;4971055;28;20126;-78
2022/10/20 04:31:24;;;;;;;8.98;4.55;;;7.70;80.00;;;;;;4970108;28;20295;-79
2022/10/20 04:33:51;;;;;;;9.63;4.57;;;7.70;80.00;;;;;;4984826;28;20051;-79
2022/10/20 04:36:18;;;;;;;10.38;4.47;;;7.60;80.20;;;;;;4956127;28;20062;-79
2022/10/20 04:38:45;;;;;;;9.70;5.05;;;7.60;80.20;;;;;;4970052;28;20529;-78
2022/10/20 04:41:11;;;;;;;12.27;5.23;;;7.60;80.00;;;;;;4969692;28;20498;-78
2022/10/20 04:43:38;;;;;;;9.65;4.80;;;7.70;80.00;;;;;;4969534;28;20247;-78
2022/10/20 04:46:07;;;;;;;10.00;5.10;;;7.70;80.10;;;;;;4958041;28;20056;-79
2022/10/20 04:48:34;;;;;;;8.82;4.80;;;7.70;80.30;;;;;;4951819;28;20340;-79
2022/10/20 04:51:02;;;;;;;9.60;4.63;;;7.60;80.20;;;;;;4950120;28;20138;-79
2022/10/20 04:53:29;;;;;;;9.10;4.60;;;7.60;80.20;;;;;;4958614;28;20055;-78
2022/10/20 04:55:56;;;;;;;9.25;5.00;;;7.60;80.30;;;;;;4969647;28;20260;-78
2022/10/20 04:58:24;;;;;;;10.45;5.18;;;7.60;80.20;;;;;;4969491;28;20547;-78
2022/10/20 05:00:51;;;;;;;8.52;5.10;;;7.60;80.20;;;;;;4969504;28;20055;-78
2022/10/20 05:03:19;;;;;;;8.77;5.35;;;7.60;80.40;;;;;;4980662;28;20056;-78
2022/10/20 05:05:46;;;;;;;8.77;4.70;;;7.60;80.40;;;;;;4953093;28;20083;-78
2022/10/20 05:08:13;;;;;;;9.65;5.28;;;7.60;80.40;;;;;;4960678;28;20293;-78
2022/10/20 05:10:41;;;;;;;11.40;5.38;;;7.60;80.40;;;;;;4971095;28;20138;-78
2022/10/20 05:13:08;;;;;;;10.50;5.70;;;7.70;80.40;;;;;;4974917;28;20094;-78
2022/10/20 05:15:35;;;;;;;10.50;5.28;;;7.70;80.40;;;;;;4973531;28;20149;-78
2022/10/20 05:18:02;;;;;;;11.57;5.80;;;7.70;80.40;;;;;;4973527;28;20046;-78
2022/10/20 05:20:30;;;;;;;11.68;6.03;;;7.70;80.40;;;;;;4957694;28;20284;-78
2022/10/20 05:22:57;;;;;;;10.05;5.25;;;7.70;80.40;;;;;;4955430;28;20129;-78
2022/10/20 05:25:24;;;;;;;14.25;6.05;;;7.70;80.40;;;;;;4955315;28;20055;-78
2022/10/20 05:27:51;;;;;;;10.48;5.20;;;7.70;80.30;;;;;;4956121;28;20048;-78
2022/10/20 05:30:18;;;;;;;11.57;5.30;;;7.60;80.20;;;;;;4985954;28;20111;-78
2022/10/20 05:32:46;;;;;;;9.57;5.25;;;7.70;80.30;;;;;;4954059;28;20256;-78
2022/10/20 05:35:13;;;;;;;10.00;5.55;;;7.70;80.50;;;;;;4974835;28;20521;-78
2022/10/20 05:37:42;;;;;;;10.75;5.80;;;7.70;80.30;;;;;;4972798;28;20062;-78
2022/10/20 05:40:10;;;;;;;11.27;5.75;;;7.60;80.40;;;;;;4972803;28;20062;-78
2022/10/20 05:42:37;;;;;;;12.93;6.03;;;7.60;80.40;;;;;;4973366;28;20502;-79
2022/10/20 05:45:05;;;;;;;10.77;5.35;;;7.60;80.20;;;;;;4985542;28;20279;-78
2022/10/20 05:47:33;;;;;;;11.90;5.55;;;7.60;80.30;;;;;;4971417;28;20343;-78
2022/10/20 05:50:00;;;;;;;10.48;5.53;;;7.60;80.40;;;;;;4975261;28;20747;-78
2022/10/20 05:52:27;;;;;;;9.77;5.50;;;7.60;80.30;;;;;;4972872;28;20063;-78
2022/10/20 05:54:55;;;;;;;12.43;5.77;;;7.60;80.40;;;;;;4976432;28;20058;-78
2022/10/20 05:57:23;;;;;;;13.18;6.40;;;7.60;80.40;;;;;;4972964;28;20666;-78
2022/10/20 05:59:50;;;;;;;12.13;6.00;;;7.60;80.40;;;;;;4972256;28;20054;-78
2022/10/20 06:02:17;;;;;;;9.88;5.00;;;7.50;80.50;;;;;;4971713;28;20047;-78
2022/10/20 06:04:44;;;;;;;11.23;6.07;;;7.50;80.50;;;;;;4968852;28;20047;-78
2022/10/20 06:07:11;;;;;;;10.23;5.87;;;7.60;80.50;;;;;;4954381;28;20050;-78
2022/10/20 06:09:39;;;;;;;10.82;6.13;;;7.60;80.50;;;;;;4953082;28;20319;-79
2022/10/20 06:12:08;;;;;;;11.38;5.85;;;7.60;80.50;;;;;;4981460;28;20532;-78
2022/10/20 06:14:35;;;;;;;12.55;6.30;;;7.60;80.40;;;;;;4971606;28;20066;-78
2022/10/20 06:17:02;;;;;;;12.05;6.30;;;7.60;80.40;;;;;;4971968;28;20054;-77
2022/10/20 06:19:29;;;;;;;12.37;6.50;;;7.60;80.40;;;;;;4971300;28;20154;-78
2022/10/20 06:21:57;;;;;;;10.82;6.20;;;7.60;80.50;;;;;;4972059;28;20256;-79
2022/10/20 06:24:25;;;;;;;11.90;6.47;;;7.60;80.50;;;;;;4970497;28;20067;-79
2022/10/20 06:26:52;;;;;;;12.30;6.68;;;7.60;80.50;;;;;;4971632;28;20094;-78
2022/10/20 06:29:20;;;;;;;12.52;6.78;;;7.50;80.50;;;;;;4969636;28;21128;-79
2022/10/20 06:31:49;;;;;;;12.90;7.03;;;7.50;80.50;;;;;;4971726;28;20059;-80
2022/10/20 06:34:18;;;;;;;10.70;6.45;;;7.50;80.50;;;;;;4971614;28;20279;-78
2022/10/20 06:36:45;;;;;;;12.90;7.05;;;7.50;80.50;;;;;;4968179;28;20047;-78
2022/10/20 06:39:16;;;;;;;12.10;6.13;;;7.50;80.60;;;;;;4970807;28;20151;-79
2022/10/20 06:41:45;;;;;;;13.82;7.25;;;7.50;80.70;;;;;;4985195;28;20592;-79
2022/10/20 06:44:21;;;;;;;11.17;6.30;;;7.50;80.70;;;;;;4985275;28;20044;-79
2022/10/20 06:46:51;;;;;;;11.18;6.45;;;7.50;80.80;;;;;;4963044;28;20279;-77
2022/10/20 06:49:18;;;;;;;13.00;6.53;;;7.50;80.80;;;;;;4971397;28;20051;-77
2022/10/20 06:51:45;;;;;;;12.63;7.00;;;7.50;80.90;;;;;;4972108;28;21077;-79
2022/10/20 06:54:12;;;;;;;13.30;6.88;;;7.50;80.90;;;;;;4970487;28;20509;-77
2022/10/20 06:56:40;;;;;;;13.87;7.27;;;7.50;81.00;;;;;;4972913;28;20071;-76
2022/10/20 06:59:07;;;;;;;11.18;6.30;;;7.50;81.20;;;;;;4972283;28;20291;-78
2022/10/20 07:01:37;;;;;;;12.45;6.65;;;7.50;81.30;;;;;;4971756;28;20057;-77
2022/10/20 07:04:06;;;;;;;11.02;6.43;;;7.50;81.30;;;;;;4964917;28;21031;-78
2022/10/20 07:06:36;;;;;;;12.73;6.72;;;7.50;81.40;;;;;;4969175;28;20078;-79
2022/10/20 07:09:06;;;;;;;11.60;7.20;;;7.50;81.50;;;;;;4987538;28;20058;-77
2022/10/20 07:11:33;;;;;;;13.40;7.00;;;7.60;81.50;;;;;;4949277;28;20276;-77
2022/10/20 07:14:01;;;;;;;11.13;6.15;;;7.60;81.50;;;;;;4961517;28;20493;-76
2022/10/20 07:16:30;;;;;;;11.35;6.53;;;7.60;81.40;;;;;;4970964;28;20747;-77
2022/10/20 07:18:59;;;;;;;11.50;6.38;;;7.70;81.60;;;;;;4954413;28;20051;-77
2022/10/20 07:21:28;;;;;;;11.53;6.57;;;7.70;81.70;;;;;;4972232;28;20062;-77
2022/10/20 07:23:56;;;;;;;11.85;6.85;;;7.80;81.60;;;;;;4987249;28;20595;-76
2022/10/20 07:26:24;;;;;;;11.93;6.95;;;7.80;81.60;;;;;;4987797;28;20586;-77
2022/10/20 07:28:54;;;;;;;12.82;6.20;;;7.80;81.60;;;;;;4968298;28;20053;-77
2022/10/20 07:31:23;;;;;;;12.07;6.55;;;7.80;81.80;;;;;;4969886;28;20446;-76
2022/10/20 07:33:50;;;;;;;14.83;7.10;;;7.80;81.80;;;;;;4969400;28;20547;-77
2022/10/20 07:36:21;;;;;;;12.93;6.90;;;7.80;81.70;;;;;;4967903;28;20348;-76
2022/10/20 07:38:48;;;;;;;12.00;7.30;;;7.80;81.70;;;;;;4957310;28;20179;-77
2022/10/20 07:41:15;;;;;;;13.27;6.88;;;7.90;81.90;;;;;;4986801;28;20054;-76
2022/10/20 07:43:43;;;;;;;12.65;7.35;;;7.90;81.70;;;;;;4956768;28;20056;-76
2022/10/20 07:46:11;;;;;;;13.63;6.87;;;8.00;81.60;;;;;;4970999;28;20406;-76
2022/10/20 07:48:39;;;;;;;13.90;6.75;;;8.00;81.60;;;;;;4969393;28;20279;-76
2022/10/20 07:51:28;;;;;;;12.18;6.93;;;8.00;81.60;;;;;;4952334;28;20138;-76
2022/10/20 07:53:58;;;;;;;11.82;6.32;;;8.00;81.60;;;;;;4963439;28;20093;-76
2022/10/20 07:56:27;;;;;;;13.20;6.70;;;8.00;81.50;;;;;;4969619;28;20055;-77
2022/10/20 07:58:55;;;;;;;10.40;6.27;;;8.10;81.70;;;;;;4968167;28;20046;-77
2022/10/20 08:01:22;;;;;;;12.75;7.03;;;8.10;81.80;;;;;;4968905;28;20780;-76
2022/10/20 08:03:49;;;;;;;14.27;7.00;;;8.10;81.80;;;;;;4967100;28;20138;-77
2022/10/20 08:06:16;;;;;;;12.65;6.72;;;8.10;81.90;;;;;;4953946;28;20046;-77
2022/10/20 08:08:44;;;;;;;12.15;6.53;;;8.20;81.80;;;;;;4966423;28;20074;-78
2022/10/20 08:11:12;;;;;;;12.90;6.67;;;8.20;81.90;;;;;;4970411;28;20186;-78
2022/10/20 08:13:39;;;;;;;11.25;6.07;;;8.20;82.00;;;;;;4970009;28;20282;-78
2022/10/20 08:16:08;;;;;;;11.23;6.75;;;8.30;81.80;;;;;;4971618;28;20059;-77
2022/10/20 08:18:35;;;;;;;11.43;6.35;;;8.30;81.80;;;;;;4971342;28;20063;-77
2022/10/20 08:21:10;;;;;;;12.57;6.43;;;8.40;81.90;;;;;;4982996;28;20051;-77
2022/10/20 08:23:41;;;;;;;11.60;6.30;;;8.40;81.80;;;;;;4964488;28;20138;-78
2022/10/20 08:26:10;;;;;;;12.30;6.20;;;8.40;81.80;;;;;;4971554;28;20252;-78
2022/10/20 08:28:37;;;;;;;12.80;6.32;;;8.50;81.90;;;;;;4966968;28;20055;-78
2022/10/20 08:31:06;;;;;;;11.10;6.47;;;8.50;81.80;;;;;;4970752;28;20559;-78
2022/10/20 08:33:34;;;;;;;12.82;6.40;;;8.50;81.60;;;;;;4972661;28;20062;-79
2022/10/20 08:36:02;;;;;;;11.70;6.50;;;8.60;81.70;;;;;;4971713;28;20437;-78
2022/10/20 08:38:29;;;;;;;10.38;6.60;;;8.60;81.70;;;;;;4968777;28;20298;-78
2022/10/20 08:40:57;;;;;;;12.93;6.43;;;8.60;81.70;;;;;;4969901;28;20520;-75
2022/10/20 08:43:29;;;;;;;10.60;6.25;;;8.60;81.60;;;;;;4970009;28;20059;-77
2022/10/20 08:45:57;;;;;;;11.20;6.45;;;8.80;81.60;;;;;;4961037;28;20961;-79
2022/10/20 08:48:26;;;;;;;13.40;6.17;;;8.80;81.50;;;;;;4968026;28;20057;-78
2022/10/20 08:50:54;;;;;;;11.15;6.22;;;8.80;81.50;;;;;;4967675;28;20267;-77
2022/10/20 08:53:25;;;;;;;11.38;6.22;;;8.90;81.60;;;;;;4982036;28;20063;-78
2022/10/20 08:55:54;;;;;;;10.57;6.43;;;8.90;81.80;;;;;;4966641;28;20062;-80
2022/10/20 08:58:24;;;;;;;10.52;6.03;;;9.00;81.80;;;;;;4968005;28;20047;-79
2022/10/20 09:00:57;;;;;;;13.73;6.23;;;9.00;81.70;;;;;;4968343;28;20055;-79
2022/10/20 09:03:28;;;;;;;12.93;6.88;;;9.00;81.60;;;;;;4966607;28;20286;-79
2022/10/20 09:06:00;;;;;;;12.27;6.35;;;9.20;81.40;;;;;;4970564;28;20142;-78
2022/10/20 09:08:30;;;;;;;14.77;6.70;;;9.20;81.40;;;;;;4954213;28;20059;-79
2022/10/20 09:10:58;;;;;;;11.75;6.53;;;9.20;81.30;;;;;;4968726;28;20130;-77
2022/10/20 09:13:27;;;;;;;10.83;6.23;;;9.30;81.20;;;;;;4970660;28;20152;-77
2022/10/20 09:16:02;;;;;;;10.73;5.90;;;9.40;81.30;;;;;;4969849;28;20283;-79
2022/10/20 09:18:29;;;;;;;9.88;5.72;;;9.40;81.30;;;;;;4970275;28;20062;-78
2022/10/20 09:21:00;;;;;;;10.23;5.50;;;9.50;81.00;;;;;;4961024;28;20058;-78
2022/10/20 09:23:33;;;;;;;10.40;5.90;;;9.50;80.90;;;;;;4950822;28;20146;-78
2022/10/20 09:26:01;;;;;;;12.30;6.30;;;9.60;80.80;;;;;;4950706;28;20075;-78
2022/10/20 09:28:28;;;;;;;13.93;6.22;;;9.60;80.80;;;;;;4953237;28;20891;-78
2022/10/20 09:30:58;;;;;;;10.48;5.95;;;9.60;80.70;;;;;;4969616;28;20052;-78
2022/10/20 09:33:30;;;;;;;10.00;6.30;;;9.70;80.70;;;;;;4952113;28;20050;-78
2022/10/20 09:36:04;;;;;;;12.73;6.28;;;9.70;80.40;;;;;;4959021;28;20150;-79
2022/10/20 09:38:34;;;;;;;10.07;5.67;;;9.80;80.40;;;;;;4968825;28;20051;-78
2022/10/20 09:41:10;;;;;;;8.88;5.32;;;9.80;80.50;;;;;;4968624;28;20251;-78
2022/10/20 09:43:40;;;;;;;10.52;5.60;;;9.90;80.30;;;;;;4984701;28;20058;-78
2022/10/20 09:46:10;;;;;;;10.35;5.80;;;10.00;80.20;;;;;;4968226;28;20055;-79
2022/10/20 09:48:40;;;;;;;10.55;6.05;;;10.00;80.20;;;;;;4967253;28;20106;-78
2022/10/20 09:51:14;;;;;;;9.23;5.50;;;10.00;80.20;;;;;;4984316;28;20428;-77
2022/10/20 09:53:51;;;;;;;11.77;5.55;;;10.00;80.20;;;;;;4968366;28;20363;-76
2022/10/20 09:56:30;;;;;;;8.85;5.65;;;10.10;80.00;;;;;;4969775;28;20086;-77
2022/10/20 09:58:59;;;;;;;12.30;5.80;;;10.10;80.20;;;;;;4967485;28;20145;-76
2022/10/20 10:01:28;;;;;;;11.93;5.80;;;10.20;80.10;;;;;;4956631;28;20058;-77
2022/10/20 10:04:00;;;;;;;11.70;6.00;;;10.20;80.30;;;;;;4971218;28;20066;-77
2022/10/20 10:06:40;;;;;;;12.70;5.97;;;10.30;80.50;;;;;;4984258;28;20251;-77
2022/10/20 10:09:25;;;;;;;9.43;5.78;;;10.30;80.50;;;;;;4970754;28;20051;-78
2022/10/20 10:11:57;;;;;;;13.50;5.57;;;10.40;80.20;;;;;;4971892;28;20047;-78
2022/10/20 10:14:25;;;;;;;10.98;5.43;;;10.50;80.10;;;;;;4971293;28;20055;-78
2022/10/20 10:16:53;;;;;;;9.63;5.57;;;10.60;80.20;;;;;;4973516;28;20133;-77
2022/10/20 10:19:28;;;;;;;10.80;5.63;;;10.60;80.00;;;;;;4972066;28;20279;-79
2022/10/20 10:21:57;;;;;;;9.25;5.45;;;10.70;79.90;;;;;;4971464;28;20510;-78
2022/10/20 10:24:41;;;;;;;11.85;6.20;;;10.80;79.90;;;;;;4977238;28;20058;-78
2022/10/20 10:27:24;;;;;;;13.98;5.38;;;10.90;80.00;;;;;;4959446;28;20048;-78
2022/10/20 10:29:52;;;;;;;9.43;5.40;;;11.00;79.90;;;;;;4970712;28;20048;-78
2022/10/20 10:32:25;;;;;;;10.90;5.75;;;11.10;79.60;;;;;;4971652;28;20258;-81
2022/10/20 10:35:07;;;;;;;9.82;5.70;;;11.10;79.50;;;;;;4971958;28;20068;-79
2022/10/20 10:37:36;;;;;;;9.75;5.55;;;11.30;79.40;;;;;;4969340;28;20070;-79
2022/10/20 10:40:13;;;;;;;9.13;5.22;;;11.30;79.00;;;;;;4987587;28;20062;-79
2022/10/20 10:42:57;;;;;;;8.90;5.07;;;11.40;78.60;;;;;;4972530;28;20051;-79
2022/10/20 10:45:44;;;;;;;10.18;5.60;;;11.50;78.40;;;;;;4968297;28;20819;-80
2022/10/20 10:48:37;;;;;;;9.75;5.20;;;11.50;78.20;;;;;;4972846;28;20059;-78
2022/10/20 10:51:10;;;;;;;9.18;5.28;;;11.70;77.80;;;;;;4963126;28;20114;-79
2022/10/20 10:53:50;;;;;;;11.25;5.88;;;11.70;77.80;;;;;;4973212;28;20110;-79
2022/10/20 10:56:27;;;;;;;9.73;5.10;;;11.70;77.70;;;;;;4970502;28;20146;-78
2022/10/20 10:58:58;;;;;;;9.65;5.78;;;11.90;77.60;;;;;;4971153;28;20334;-78
2022/10/20 11:01:50;;;;;;;9.38;5.32;;;11.90;77.80;;;;;;4969482;28;21011;-78
2022/10/20 11:05:01;;;;;;;9.02;5.60;;;11.90;77.60;;;;;;4979266;28;20537;-79
2022/10/20 11:07:35;;;;;;;9.18;5.45;;;12.00;77.60;;;;;;4951887;28;20769;-79
2022/10/20 11:10:09;;;;;;;8.97;5.27;;;12.10;77.60;;;;;;4954626;28;20053;-78
2022/10/20 11:12:58;;;;;;;10.70;5.55;;;12.20;77.30;;;;;;4966059;28;20290;-77
2022/10/20 11:15:39;;;;;;;9.45;5.38;;;12.20;77.10;;;;;;4969525;28;20529;-78
2022/10/20 11:18:14;;;;;;;11.43;5.30;;;12.30;76.90;;;;;;4967537;28;20062;-78
2022/10/20 11:20:48;;;;;;;11.50;5.95;;;12.40;76.90;;;;;;4970247;28;20636;-77
2022/10/20 11:23:45;;;;;;;9.93;5.67;;;12.50;76.80;;;;;;4969474;28;20051;-79
2022/10/20 11:26:19;;;;;;;10.00;5.65;;;12.50;76.50;;;;;;4968479;28;20286;-78
2022/10/20 11:28:49;;;;;;;9.57;5.68;;;12.50;76.60;;;;;;4970206;28;20141;-79
2022/10/20 11:31:24;;;;;;;10.65;5.60;;;12.50;76.00;;;;;;4968589;28;20057;-79
2022/10/20 11:33:57;;;;;;;10.23;5.10;;;12.50;75.80;;;;;;4968547;28;20521;-80
2022/10/20 11:36:34;;;;;;;9.93;5.63;;;12.60;75.90;;;;;;4970374;28;20142;-78
2022/10/20 11:39:03;;;;;;;9.55;5.45;;;12.60;76.10;;;;;;4969110;28;20338;-78
2022/10/20 11:41:37;;;;;;;10.38;5.60;;;12.60;76.00;;;;;;4969347;28;20141;-79
2022/10/20 11:44:08;;;;;;;11.23;5.72;;;12.70;76.10;;;;;;4960961;28;20052;-79
2022/10/20 11:46:41;;;;;;;11.30;5.53;;;12.70;76.00;;;;;;4960432;28;20058;-79
2022/10/20 11:49:11;;;;;;;10.50;5.43;;;12.70;75.90;;;;;;4966559;28;20062;-79
2022/10/20 11:52:08;;;;;;;10.82;5.97;;;12.70;75.80;;;;;;4961072;28;20260;-78
2022/10/20 11:54:55;;;;;;;10.65;6.00;;;12.80;75.90;;;;;;4985100;28;20528;-79
2022/10/20 11:57:31;;;;;;;9.25;5.70;;;12.80;75.80;;;;;;4982975;28;20949;-79
2022/10/20 12:00:21;;;;;;;9.73;5.63;;;12.80;75.70;;;;;;4968359;28;20540;-79
2022/10/20 12:03:29;;;;;;;10.17;5.67;;;12.80;75.60;;;;;;4949535;28;20055;-79
2022/10/20 12:06:17;;;;;;;11.25;6.15;;;12.80;75.80;;;;;;4969064;28;20283;-79
2022/10/20 12:09:02;;;;;;;11.65;6.10;;;12.80;75.90;;;;;;4970102;28;20159;-78
2022/10/20 12:11:36;;;;;;;8.77;5.32;;;12.80;75.90;;;;;;4957473;28;20051;-79
2022/10/20 12:14:16;;;;;;;12.05;6.13;;;12.80;75.90;;;;;;4969919;28;20555;-78
2022/10/20 12:17:14;;;;;;;10.70;5.70;;;12.80;76.00;;;;;;4960075;28;20052;-78
2022/10/20 12:19:41;;;;;;;10.25;5.93;;;12.80;76.20;;;;;;4968662;28;20250;-78
2022/10/20 12:22:45;;;;;;;10.30;6.15;;;12.80;76.40;;;;;;4968442;28;20062;-79
2022/10/20 12:25:37;;;;;;;9.77;6.10;;;12.80;76.50;;;;;;4969243;28;20138;-79
2022/10/20 12:28:33;;;;;;;9.65;6.20;;;12.80;76.70;;;;;;4974760;28;20114;-78
2022/10/20 12:31:02;;;;;;;10.40;5.97;;;12.80;76.90;;;;;;4969621;28;20051;-78
2022/10/20 12:33:38;;;;;;;10.20;6.40;;;12.80;77.00;;;;;;4971910;28;20251;-79
2022/10/20 12:36:37;;;;;;;9.25;6.20;;;12.80;77.20;;;;;;4951764;28;20083;-79
2022/10/20 12:39:15;;;;;;;9.10;5.80;;;12.80;77.30;;;;;;4953955;28;20581;-79
2022/10/20 12:41:55;;;;;;;11.70;6.60;;;12.80;77.30;;;;;;4970677;28;20522;-79
2022/10/20 12:44:24;;;;;;;9.90;6.33;;;12.80;77.60;;;;;;4958008;28;20051;-78
2022/10/20 12:46:56;;;;;;;9.35;5.85;;;12.80;77.60;;;;;;4970508;28;20294;-78
2022/10/20 12:49:29;;;;;;;10.85;6.38;;;12.80;77.80;;;;;;4965323;28;20048;-78
2022/10/20 12:51:57;;;;;;;10.10;6.57;;;12.80;77.80;;;;;;4968442;28;20057;-78
2022/10/20 12:54:29;;;;;;;11.23;6.57;;;12.80;78.10;;;;;;4971661;28;20107;-79
2022/10/20 12:57:02;;;;;;;13.27;6.67;;;12.80;78.10;;;;;;4985794;28;20074;-79
2022/10/20 12:59:38;;;;;;;11.43;6.43;;;12.80;78.20;;;;;;4969552;28;20272;-79
2022/10/20 13:02:52;;;;;;;14.85;6.85;;;12.80;78.30;;;;;;4971237;28;20059;-78
2022/10/20 13:05:44;;;;;;;10.48;6.03;;;12.80;78.70;;;;;;4970312;28;20051;-79
2022/10/20 13:08:30;;;;;;;11.45;6.68;;;12.80;78.80;;;;;;4945104;28;20047;-79
2022/10/20 13:11:37;;;;;;;13.07;7.10;;;12.80;78.90;;;;;;4967630;28;20051;-78
2022/10/20 13:14:30;;;;;;;12.20;6.70;;;12.80;79.00;;;;;;4953047;28;21118;-78
2022/10/20 13:17:03;;;;;;;11.68;6.40;;;12.80;79.20;;;;;;4960410;28;20055;-78